Time;durP1;ratioP1;P1;durP2;ratioP2;P2;SDS_P1;SDS_P2;PMS_P1;PMS_P2;Temp;Humidity;BMP_temperature;BMP_pressure;BME280_temperature;BME280_humidity;BME280_pressure;Samples;Min_cycle;Max_cycle;Signal;HPM_P1;HPM_P2
2022/09/10 00:00:33;;;;;;;;;;;;;;;16.02;73.56;100653.66;5088412;28;19928;-76
2022/09/10 00:03:00;;;;;;;;;;;;;;;16.05;72.62;100648.22;5073139;28;19924;-76
2022/09/10 00:05:26;;;;;;;;;;;;;;;16.09;72.96;100640.19;5093361;28;19928;-76
2022/09/10 00:07:51;;;;;;;;;;;;;;;16.06;73.45;100635.09;5094677;28;20411;-76
2022/09/10 00:10:17;;;;;;;;;;;;;;;16.07;73.26;100639.41;5091950;28;19928;-76
2022/09/10 00:12:42;;;;;;;;;;;;;;;16.12;72.65;100639.19;5100305;28;19952;-76
2022/09/10 00:15:08;;;;;;;;;;;;;;;16.10;73.12;100646.28;5088529;28;20266;-76
2022/09/10 00:17:37;;;;;;;;;;;;;;;16.12;71.53;100647.06;5095524;28;24666;-76
2022/09/10 00:20:03;;;;;;;;;;;;;;;16.10;71.70;100644.50;5090872;28;19927;-76
2022/09/10 00:22:28;;;;;;;;;;;;;;;16.12;71.29;100647.91;5070361;28;20312;-76
2022/09/10 00:24:54;;;;;;;;;;;;;;;16.15;71.50;100652.16;5098034;28;19923;-76
2022/09/10 00:27:19;;;;;;;;;;;;;;;16.11;72.47;100656.69;5084862;28;19962;-76
2022/09/10 00:29:45;;;;;;;;;;;;;;;16.13;72.48;100651.38;5093243;28;19920;-76
2022/09/10 00:32:10;;;;;;;;;;;;;;;16.11;72.00;100653.19;5093045;28;19920;-76
2022/09/10 00:34:35;;;;;;;;;;;;;;;16.16;70.88;100657.34;5089663;28;20563;-76
2022/09/10 00:37:00;;;;;;;;;;;;;;;16.13;71.30;100661.88;5095541;28;20847;-76
2022/09/10 00:39:26;;;;;;;;;;;;;;;16.11;70.77;100661.06;5085618;28;20011;-76
2022/09/10 00:41:53;;;;;;;;;;;;;;;16.25;71.15;100661.31;5088259;28;19923;-76
2022/09/10 00:44:38;;;;;;;;;;;;;;;16.25;70.44;100659.53;5091493;28;19947;-76
2022/09/10 00:47:04;;;;;;;;;;;;;;;16.27;71.37;100662.06;5095090;28;19995;-76
2022/09/10 00:49:36;;;;;;;;;;;;;;;16.20;71.47;100664.13;5093997;28;19924;-76
2022/09/10 00:52:02;;;;;;;;;;;;;;;16.33;70.26;100661.78;5097771;28;19994;-76
2022/09/10 00:54:30;;;;;;;;;;;;;;;16.27;71.45;100656.84;5090949;28;20296;-76
2022/09/10 00:56:58;;;;;;;;;;;;;;;16.20;72.02;100660.66;5076333;28;20343;-76
2022/09/10 00:59:25;;;;;;;;;;;;;;;16.29;72.36;100661.06;5089555;28;19920;-76
2022/09/10 01:01:50;;;;;;;;;;;;;;;16.29;71.04;100657.59;5091571;28;20570;-76
2022/09/10 01:04:16;;;;;;;;;;;;;;;16.27;72.11;100664.69;5085967;28;20420;-76
2022/09/10 01:06:44;;;;;;;;;;;;;;;16.21;73.21;100655.34;5089588;28;19924;-76
2022/09/10 01:09:10;;;;;;;;;;;;;;;16.13;71.75;100660.09;5087674;28;20428;-76
2022/09/10 01:11:58;;;;;;;;;;;;;;;16.17;70.99;100653.78;5099951;28;19920;-76
2022/09/10 01:14:42;;;;;;;;;;;;;;;16.19;70.42;100651.09;5047277;28;19920;-76
2022/09/10 01:17:26;;;;;;;;;;;;;;;16.29;69.69;100649.75;5087053;28;19993;-76
2022/09/10 01:20:01;;;;;;;;;;;;;;;16.32;70.52;100650.44;5092471;28;20441;-76
2022/09/10 01:22:49;;;;;;;;;;;;;;;16.27;71.23;100655.06;5087721;28;19920;-76
2022/09/10 01:25:24;;;;;;;;;;;;;;;16.20;70.57;100658.03;5048476;28;20587;-76
2022/09/10 01:27:54;;;;;;;;;;;;;;;16.20;71.36;100660.66;5092747;28;19927;-76
2022/09/10 01:30:21;;;;;;;;;;;;;;;16.24;71.07;100659.59;5094880;28;19970;-76
2022/09/10 01:32:59;;;;;;;;;;;;;;;16.23;71.34;100657.88;5092349;28;19981;-76
2022/09/10 01:35:24;;;;;;;;;;;;;;;16.30;70.72;100654.94;5088795;28;19925;-76
2022/09/10 01:37:53;;;;;;;;;;;;;;;16.25;71.73;100656.06;5085334;28;19966;-76
2022/09/10 01:40:19;;;;;;;;;;;;;;;16.24;71.55;100656.97;5094574;28;19920;-76
2022/09/10 01:42:45;;;;;;;;;;;;;;;16.29;69.98;100653.22;5094844;28;20380;-76
2022/09/10 01:45:12;;;;;;;;;;;;;;;16.30;70.21;100651.44;5084446;28;19959;-76
2022/09/10 01:47:40;;;;;;;;;;;;;;;16.39;70.93;100648.41;5097369;28;20298;-76
2022/09/10 01:50:11;;;;;;;;;;;;;;;16.39;71.00;100648.41;5091067;28;19930;-76
2022/09/10 01:52:57;;;;;;;;;;;;;;;16.38;70.09;100641.44;5087947;28;19974;-76
2022/09/10 01:55:30;;;;;;;;;;;;;;;16.36;68.85;100641.53;5073041;28;19923;-76
2022/09/10 01:58:03;;;;;;;;;;;;;;;16.42;68.91;100637.78;5089275;28;19926;-76
2022/09/10 02:00:32;;;;;;;;;;;;;;;16.29;69.54;100640.09;5067707;28;20300;-76
2022/09/10 02:03:10;;;;;;;;;;;;;;;16.34;69.86;100634.66;5090264;28;19931;-76
2022/09/10 02:05:38;;;;;;;;;;;;;;;16.30;70.42;100633.09;5087408;28;19985;-76
2022/09/10 02:08:10;;;;;;;;;;;;;;;16.29;70.36;100634.00;5091153;28;19990;-76
2022/09/10 02:10:47;;;;;;;;;;;;;;;16.24;71.49;100633.38;5097126;28;19920;-76
2022/09/10 02:13:13;;;;;;;;;;;;;;;16.29;70.37;100629.63;5087270;28;19920;-76
2022/09/10 02:15:38;;;;;;;;;;;;;;;16.36;71.64;100627.56;5078517;28;19978;-76
2022/09/10 02:18:04;;;;;;;;;;;;;;;16.20;71.29;100623.94;5093537;28;19917;-76
2022/09/10 02:20:30;;;;;;;;;;;;;;;16.33;70.76;100623.31;5094443;28;19928;-76
2022/09/10 02:22:57;;;;;;;;;;;;;;;16.34;70.40;100624.19;5092206;28;19989;-76
2022/09/10 02:25:24;;;;;;;;;;;;;;;16.30;70.42;100628.72;5093649;28;19926;-76
2022/09/10 02:27:49;;;;;;;;;;;;;;;16.34;70.54;100629.44;5099271;28;19920;-76
2022/09/10 02:30:15;;;;;;;;;;;;;;;16.28;71.74;100630.56;5087405;28;19927;-76
2022/09/10 02:32:41;;;;;;;;;;;;;;;16.30;71.67;100633.09;5096703;28;20428;-76
2022/09/10 02:35:07;;;;;;;;;;;;;;;16.35;71.17;100637.19;5094549;28;19973;-76
2022/09/10 02:37:32;;;;;;;;;;;;;;;16.33;70.70;100625.94;5093740;28;19951;-76
2022/09/10 02:39:58;;;;;;;;;;;;;;;16.32;71.40;100631.25;5091691;28;19959;-76
2022/09/10 02:42:25;;;;;;;;;;;;;;;16.30;73.32;100638.34;5098388;28;19935;-76
2022/09/10 02:44:50;;;;;;;;;;;;;;;16.22;72.22;100638.72;5089012;28;20383;-76
2022/09/10 02:47:15;;;;;;;;;;;;;;;16.22;71.43;100635.25;5092717;28;19960;-76
2022/09/10 02:49:40;;;;;;;;;;;;;;;16.31;71.62;100635.63;5084809;28;20393;-76
2022/09/10 02:52:06;;;;;;;;;;;;;;;16.38;71.14;100634.44;5091110;28;19972;-76
2022/09/10 02:54:31;;;;;;;;;;;;;;;16.47;70.07;100638.41;5088568;28;19927;-76
2022/09/10 02:56:56;;;;;;;;;;;;;;;16.42;70.54;100640.41;5092672;28;19924;-76
2022/09/10 02:59:23;;;;;;;;;;;;;;;16.41;70.37;100639.53;5096033;28;19924;-76
2022/09/10 03:01:48;;;;;;;;;;;;;;;16.44;71.54;100641.16;5094231;28;20650;-76
2022/09/10 03:04:14;;;;;;;;;;;;;;;16.38;70.75;100641.44;5089298;28;19945;-76
2022/09/10 03:06:39;;;;;;;;;;;;;;;16.41;69.67;100636.91;5096037;28;19934;-76
2022/09/10 03:09:05;;;;;;;;;;;;;;;16.37;70.63;100637.97;5088780;28;19916;-76
2022/09/10 03:11:30;;;;;;;;;;;;;;;16.35;70.68;100634.59;5054227;28;20384;-76
2022/09/10 03:13:55;;;;;;;;;;;;;;;16.42;69.29;100635.16;5081638;28;19924;-76
2022/09/10 03:16:22;;;;;;;;;;;;;;;16.43;70.73;100629.81;5089309;28;20362;-76
2022/09/10 03:18:48;;;;;;;;;;;;;;;16.42;69.72;100627.28;5085058;28;19952;-76
2022/09/10 03:21:14;;;;;;;;;;;;;;;16.46;69.52;100620.97;5092212;28;19955;-76
2022/09/10 03:23:40;;;;;;;;;;;;;;;16.47;68.33;100623.53;5089406;28;20003;-76
2022/09/10 03:26:06;;;;;;;;;;;;;;;16.39;69.31;100619.56;5085068;28;19931;-76
2022/09/10 03:28:32;;;;;;;;;;;;;;;16.38;69.16;100616.09;5090104;28;19920;-76
2022/09/10 03:30:58;;;;;;;;;;;;;;;16.41;69.19;100613.31;5089176;28;19963;-76
2022/09/10 03:33:23;;;;;;;;;;;;;;;16.36;68.96;100612.69;5070550;28;19932;-76
2022/09/10 03:35:48;;;;;;;;;;;;;;;16.37;68.71;100606.50;5094637;28;19916;-76
2022/09/10 03:38:13;;;;;;;;;;;;;;;16.43;69.08;100618.50;5100348;28;19971;-76
2022/09/10 03:40:39;;;;;;;;;;;;;;;16.49;68.83;100618.22;5097022;28;19969;-76
2022/09/10 03:43:05;;;;;;;;;;;;;;;16.46;69.32;100618.38;5071381;28;19926;-76
2022/09/10 03:45:30;;;;;;;;;;;;;;;16.47;68.80;100623.53;5080903;28;19925;-76
2022/09/10 03:47:56;;;;;;;;;;;;;;;16.46;70.09;100628.84;5090636;28;19912;-76
2022/09/10 03:50:21;;;;;;;;;;;;;;;16.41;69.37;100621.19;5092035;28;19920;-76
2022/09/10 03:52:47;;;;;;;;;;;;;;;16.33;69.86;100630.34;5100411;28;19924;-76
2022/09/10 03:55:12;;;;;;;;;;;;;;;16.44;69.18;100620.19;5094098;28;19920;-76
2022/09/10 03:57:37;;;;;;;;;;;;;;;16.38;69.86;100623.09;5090857;28;19951;-76
2022/09/10 04:00:03;;;;;;;;;;;;;;;16.36;70.09;100628.44;5092413;28;20284;-76
2022/09/10 04:02:29;;;;;;;;;;;;;;;16.25;70.34;100633.34;5096877;28;19927;-76
2022/09/10 04:04:54;;;;;;;;;;;;;;;16.23;70.21;100632.53;5091867;28;19920;-76
2022/09/10 04:07:20;;;;;;;;;;;;;;;16.37;69.24;100631.91;5097618;28;20393;-76
2022/09/10 04:09:45;;;;;;;;;;;;;;;16.31;69.48;100630.38;5093218;28;19920;-76
2022/09/10 04:12:10;;;;;;;;;;;;;;;16.30;69.65;100633.97;5103224;28;19916;-76
2022/09/10 04:14:36;;;;;;;;;;;;;;;16.20;69.59;100632.66;5089873;28;19970;-76
2022/09/10 04:17:01;;;;;;;;;;;;;;;16.30;69.79;100643.59;5071316;28;19935;-76
2022/09/10 04:19:27;;;;;;;;;;;;;;;16.38;69.18;100637.06;5090833;28;19942;-76
2022/09/10 04:21:52;;;;;;;;;;;;;;;16.35;70.97;100641.59;5067539;28;19921;-76
2022/09/10 04:24:17;;;;;;;;;;;;;;;16.32;69.55;100632.09;5101388;28;19924;-76
2022/09/10 04:26:42;;;;;;;;;;;;;;;16.29;69.99;100640.09;5092080;28;19924;-76
2022/09/10 04:29:08;;;;;;;;;;;;;;;16.32;70.58;100639.97;5095916;28;20011;-76
2022/09/10 04:31:33;;;;;;;;;;;;;;;16.41;70.03;100636.91;5088310;28;20599;-76
2022/09/10 04:34:00;;;;;;;;;;;;;;;16.28;69.93;100637.56;5103246;28;19998;-76
2022/09/10 04:36:25;;;;;;;;;;;;;;;16.23;70.54;100642.16;5095368;28;19920;-76
2022/09/10 04:38:50;;;;;;;;;;;;;;;16.27;70.31;100635.88;5094779;28;19919;-76
2022/09/10 04:41:18;;;;;;;;;;;;;;;16.28;69.17;100635.81;5089800;28;19926;-76
2022/09/10 04:43:43;;;;;;;;;;;;;;;16.28;70.53;100641.06;5089559;28;19960;-76
2022/09/10 04:46:08;;;;;;;;;;;;;;;16.16;69.67;100644.22;5086091;28;19951;-76
2022/09/10 04:48:34;;;;;;;;;;;;;;;16.22;70.51;100643.97;5092858;28;19943;-76
2022/09/10 04:50:59;;;;;;;;;;;;;;;16.20;70.46;100645.78;5095527;28;20408;-76
2022/09/10 04:53:26;;;;;;;;;;;;;;;16.25;70.22;100648.19;5077429;28;19916;-76
2022/09/10 04:55:52;;;;;;;;;;;;;;;16.23;70.01;100652.63;5095031;28;19973;-76
2022/09/10 04:58:17;;;;;;;;;;;;;;;16.20;70.95;100651.00;5083294;28;20646;-76
2022/09/10 05:00:43;;;;;;;;;;;;;;;16.24;70.48;100659.59;5089971;28;20284;-76
2022/09/10 05:03:08;;;;;;;;;;;;;;;16.22;70.71;100654.44;5097147;28;19939;-76
2022/09/10 05:05:33;;;;;;;;;;;;;;;16.31;70.49;100650.53;5088509;28;19924;-76
2022/09/10 05:08:03;;;;;;;;;;;;;;;16.25;70.59;100653.44;5090979;28;19924;-76
2022/09/10 05:10:29;;;;;;;;;;;;;;;16.27;70.83;100651.59;5086025;28;19935;-76
2022/09/10 05:12:54;;;;;;;;;;;;;;;16.31;70.38;100658.41;5092069;28;19920;-76
2022/09/10 05:15:19;;;;;;;;;;;;;;;16.35;69.59;100649.47;5080705;28;19931;-76
2022/09/10 05:17:46;;;;;;;;;;;;;;;16.32;69.75;100646.97;5094548;28;20425;-76
2022/09/10 05:20:11;;;;;;;;;;;;;;;16.32;70.28;100649.59;5075685;28;19927;-76
2022/09/10 05:22:37;;;;;;;;;;;;;;;16.34;69.83;100659.09;5096878;28;19920;-76
2022/09/10 05:25:02;;;;;;;;;;;;;;;16.26;70.41;100658.59;5087416;28;20023;-76
2022/09/10 05:27:28;;;;;;;;;;;;;;;16.33;70.29;100653.94;5089201;28;19935;-76
2022/09/10 05:29:53;;;;;;;;;;;;;;;16.31;70.15;100650.53;5094497;28;19920;-76
2022/09/10 05:32:18;;;;;;;;;;;;;;;16.29;69.32;100649.75;5094590;28;19928;-76
2022/09/10 05:34:47;;;;;;;;;;;;;;;16.38;69.60;100649.31;5070493;28;20345;-76
2022/09/10 05:37:13;;;;;;;;;;;;;;;16.32;69.36;100657.47;5088477;28;19920;-76
2022/09/10 05:39:38;;;;;;;;;;;;;;;16.26;70.42;100661.22;5085459;28;20311;-76
2022/09/10 05:42:04;;;;;;;;;;;;;;;16.28;69.47;100662.03;5070479;28;19924;-76
2022/09/10 05:44:29;;;;;;;;;;;;;;;16.27;69.96;100660.31;5085791;28;19917;-76
2022/09/10 05:46:55;;;;;;;;;;;;;;;16.31;70.26;100666.28;5089479;28;19931;-76
2022/09/10 05:49:21;;;;;;;;;;;;;;;16.31;70.13;100666.28;5083860;28;19927;-76
2022/09/10 05:51:46;;;;;;;;;;;;;;;16.33;69.80;100664.41;5093105;28;19953;-76
2022/09/10 05:54:11;;;;;;;;;;;;;;;16.34;70.46;100672.19;5092435;28;19916;-76
2022/09/10 05:56:36;;;;;;;;;;;;;;;16.39;70.22;100679.88;5088945;28;20308;-76
2022/09/10 05:59:03;;;;;;;;;;;;;;;16.42;70.70;100679.72;5072799;28;20288;-76
2022/09/10 06:01:30;;;;;;;;;;;;;;;16.49;70.55;100668.84;5093331;28;20014;-76
2022/09/10 06:03:56;;;;;;;;;;;;;;;16.52;70.00;100667.91;5092965;28;19924;-76
2022/09/10 06:06:21;;;;;;;;;;;;;;;16.54;69.88;100666.03;5090775;28;19931;-76
2022/09/10 06:08:49;;;;;;;;;;;;;;;16.50;69.52;100672.34;5090550;28;20432;-76
2022/09/10 06:11:14;;;;;;;;;;;;;;;16.52;69.74;100666.09;5091471;28;19930;-76
2022/09/10 06:13:42;;;;;;;;;;;;;;;16.58;68.77;100670.19;5087639;28;19998;-76
2022/09/10 06:16:08;;;;;;;;;;;;;;;16.63;68.78;100676.09;5091812;28;19919;-76
2022/09/10 06:18:33;;;;;;;;;;;;;;;16.67;69.46;100666.31;5090339;28;19953;-76
2022/09/10 06:21:06;;;;;;;;;;;;;;;16.66;68.45;100673.34;5090340;28;19920;-76
2022/09/10 06:23:31;;;;;;;;;;;;;;;16.66;68.21;100680.34;5090712;28;19920;-76
2022/09/10 06:26:03;;;;;;;;;;;;;;;16.67;69.18;100680.25;5087814;28;19981;-76
2022/09/10 06:28:29;;;;;;;;;;;;;;;16.69;70.11;100688.97;5067994;28;20455;-76
2022/09/10 06:30:54;;;;;;;;;;;;;;;16.68;69.20;100688.97;5085152;28;19959;-76
2022/09/10 06:33:20;;;;;;;;;;;;;;;16.72;69.38;100683.56;5093460;28;19924;-76
2022/09/10 06:35:54;;;;;;;;;;;;;;;16.75;69.00;100693.91;5089846;28;19973;-76
2022/09/10 06:38:20;;;;;;;;;;;;;;;16.73;68.77;100695.75;5086713;28;19924;-76
2022/09/10 06:40:53;;;;;;;;;;;;;;;16.62;68.92;100700.63;5090237;28;19920;-76
2022/09/10 06:43:18;;;;;;;;;;;;;;;16.62;68.95;100698.00;5089250;28;19935;-76
2022/09/10 06:45:44;;;;;;;;;;;;;;;16.63;68.71;100693.59;5088759;28;19924;-76
2022/09/10 06:48:09;;;;;;;;;;;;;;;16.64;68.84;100701.38;5086163;28;19927;-76
2022/09/10 06:50:35;;;;;;;;;;;;;;;16.68;69.14;100697.72;5068247;28;19935;-76
2022/09/10 06:53:01;;;;;;;;;;;;;;;16.78;69.71;100706.88;5090967;28;19975;-76
2022/09/10 06:55:26;;;;;;;;;;;;;;;16.80;69.21;100705.03;5086485;28;19967;-76
2022/09/10 06:57:51;;;;;;;;;;;;;;;16.79;69.49;100713.81;5088432;28;20284;-76
2022/09/10 07:00:17;;;;;;;;;;;;;;;16.77;69.21;100715.66;5092563;28;19970;-76
2022/09/10 07:02:42;;;;;;;;;;;;;;;16.78;69.36;100712.13;5086086;28;19930;-76
2022/09/10 07:05:07;;;;;;;;;;;;;;;16.75;70.59;100717.53;5090298;28;19920;-76
2022/09/10 07:07:32;;;;;;;;;;;;;;;16.81;69.47;100726.88;5089900;28;19939;-76
2022/09/10 07:09:58;;;;;;;;;;;;;;;16.77;70.50;100723.53;5089787;28;19928;-76
2022/09/10 07:12:23;;;;;;;;;;;;;;;16.75;69.96;100727.16;5084215;28;19920;-76
2022/09/10 07:14:48;;;;;;;;;;;;;;;16.75;69.38;100725.41;5090795;28;19927;-76
2022/09/10 07:17:14;;;;;;;;;;;;;;;16.73;69.83;100721.16;5094280;28;19920;-76
2022/09/10 07:19:39;;;;;;;;;;;;;;;16.77;70.40;100731.41;5095947;28;20373;-76
2022/09/10 07:22:04;;;;;;;;;;;;;;;16.77;70.38;100733.19;5090386;28;20455;-76
2022/09/10 07:24:30;;;;;;;;;;;;;;;16.78;70.74;100727.88;5099230;28;19973;-76
2022/09/10 07:26:55;;;;;;;;;;;;;;;16.72;70.53;100724.69;5084241;28;20325;-76
2022/09/10 07:29:21;;;;;;;;;;;;;;;16.71;70.33;100731.69;5063223;28;19920;-76
2022/09/10 07:31:47;;;;;;;;;;;;;;;16.80;69.88;100739.13;5098023;28;19920;-76
2022/09/10 07:34:12;;;;;;;;;;;;;;;16.78;70.55;100734.88;5084744;28;20388;-76
2022/09/10 07:36:38;;;;;;;;;;;;;;;16.82;71.74;100742.53;5098969;28;19986;-76
2022/09/10 07:39:03;;;;;;;;;;;;;;;16.87;71.12;100743.19;5095232;28;19942;-76
2022/09/10 07:41:30;;;;;;;;;;;;;;;16.90;70.89;100739.56;5094537;28;19912;-76
2022/09/10 07:43:56;;;;;;;;;;;;;;;16.96;69.84;100734.03;5090627;28;19959;-76
2022/09/10 07:46:23;;;;;;;;;;;;;;;16.97;70.25;100736.56;5094079;28;19970;-76
2022/09/10 07:48:52;;;;;;;;;;;;;;;17.07;69.95;100731.72;5093449;28;19920;-76
2022/09/10 07:51:18;;;;;;;;;;;;;;;17.02;70.29;100742.47;5089757;28;20555;-77
2022/09/10 07:53:44;;;;;;;;;;;;;;;17.01;69.45;100742.50;5093479;28;19982;-77
2022/09/10 07:56:10;;;;;;;;;;;;;;;17.02;69.91;100737.22;5097862;28;19927;-77
2022/09/10 07:58:37;;;;;;;;;;;;;;;17.06;70.63;100741.38;5094246;28;20404;-77
2022/09/10 08:01:06;;;;;;;;;;;;;;;17.08;70.96;100736.88;5085533;28;19973;-77
2022/09/10 08:03:31;;;;;;;;;;;;;;;17.10;69.59;100739.44;5093477;28;19919;-77
2022/09/10 08:06:02;;;;;;;;;;;;;;;17.16;69.37;100733.91;5099019;28;20407;-77
2022/09/10 08:08:30;;;;;;;;;;;;;;;17.19;69.64;100735.53;5093469;28;19916;-77
2022/09/10 08:11:02;;;;;;;;;;;;;;;17.19;69.67;100733.75;5094205;28;19945;-77
2022/09/10 08:13:28;;;;;;;;;;;;;;;17.16;69.69;100731.28;5072651;28;19931;-77
2022/09/10 08:15:56;;;;;;;;;;;;;;;17.19;69.44;100732.91;5087901;28;20014;-77
2022/09/10 08:18:22;;;;;;;;;;;;;;;17.23;68.96;100737.94;5097755;28;19924;-77
2022/09/10 08:20:52;;;;;;;;;;;;;;;17.25;68.30;100740.47;5094287;28;20466;-77
2022/09/10 08:23:18;;;;;;;;;;;;;;;17.21;68.59;100744.16;5090329;28;20455;-77
2022/09/10 08:25:50;;;;;;;;;;;;;;;17.24;67.54;100744.88;5091400;28;19924;-77
2022/09/10 08:28:17;;;;;;;;;;;;;;;17.26;67.70;100740.41;5081222;28;19920;-77
2022/09/10 08:30:42;;;;;;;;;;;;;;;17.23;67.91;100737.94;5090076;28;19924;-77
2022/09/10 08:33:08;;;;;;;;;;;;;;;17.22;68.27;100746.72;5089952;28;19928;-77
2022/09/10 08:35:33;;;;;;;;;;;;;;;17.25;66.82;100740.47;5073441;28;19927;-77
2022/09/10 08:37:58;;;;;;;;;;;;;;;17.20;67.34;100742.47;5096030;28;19923;-77
2022/09/10 08:40:23;;;;;;;;;;;;;;;17.21;66.98;100742.41;5072285;28;20393;-77
2022/09/10 08:42:50;;;;;;;;;;;;;;;17.19;66.80;100740.78;5086035;28;19926;-77
2022/09/10 08:45:18;;;;;;;;;;;;;;;17.22;67.72;100738.00;5083129;28;20019;-77
2022/09/10 08:47:49;;;;;;;;;;;;;;;17.25;66.96;100745.72;5091841;28;19926;-77
2022/09/10 08:50:26;;;;;;;;;;;;;;;17.25;66.38;100746.59;5072022;28;19920;-77
2022/09/10 08:53:27;;;;;;;;;;;;;;;17.34;66.85;100746.13;5087639;28;19920;-77
2022/09/10 08:55:59;;;;;;;;;;;;;;;17.27;65.99;100757.00;5045356;28;20325;-77
2022/09/10 08:58:48;;;;;;;;;;;;;;;17.30;67.25;100755.06;5069144;28;20404;-77
2022/09/10 09:01:16;;;;;;;;;;;;;;;17.29;67.91;100758.66;5075629;28;19930;-77
2022/09/10 09:03:44;;;;;;;;;;;;;;;17.33;68.03;100760.19;5096830;28;19966;-77
2022/09/10 09:06:29;;;;;;;;;;;;;;;17.27;69.60;100765.72;5088326;28;20515;-77
2022/09/10 09:08:56;;;;;;;;;;;;;;;17.27;70.41;100759.63;5092666;28;19943;-77
2022/09/10 09:11:36;;;;;;;;;;;;;;;17.18;68.99;100767.94;5093289;28;19924;-76
2022/09/10 09:14:24;;;;;;;;;;;;;;;17.20;70.85;100768.75;5092861;28;19929;-77
2022/09/10 09:16:53;;;;;;;;;;;;;;;17.10;70.86;100777.97;5087828;28;19926;-76
2022/09/10 09:19:24;;;;;;;;;;;;;;;17.15;69.80;100771.56;5089133;28;19943;-76
2022/09/10 09:21:51;;;;;;;;;;;;;;;17.20;70.53;100772.22;5090959;28;19920;-76
2022/09/10 09:24:38;;;;;;;;;;;;;;;17.17;69.93;100775.00;5088717;28;20300;-76
2022/09/10 09:27:08;;;;;;;;;;;;;;;17.20;71.01;100776.59;5069297;28;20297;-76
2022/09/10 09:29:38;;;;;;;;;;;;;;;17.25;70.14;100769.34;5088879;28;20377;-76
2022/09/10 09:32:05;;;;;;;;;;;;;;;17.26;70.87;100777.19;5096156;28;19958;-76
2022/09/10 09:34:59;;;;;;;;;;;;;;;17.29;71.36;100779.66;5083613;28;19960;-75
2022/09/10 09:37:28;;;;;;;;;;;;;;;17.33;70.57;100772.44;5073158;28;19924;-76
2022/09/10 09:39:58;;;;;;;;;;;;;;;17.39;69.79;100770.38;5087245;28;20024;-76
2022/09/10 09:42:44;;;;;;;;;;;;;;;17.39;69.70;100766.91;5091279;28;19920;-76
2022/09/10 09:45:16;;;;;;;;;;;;;;;17.41;69.98;100768.53;5082504;28;19922;-76
2022/09/10 09:47:43;;;;;;;;;;;;;;;17.42;70.36;100769.38;5086923;28;19927;-76
2022/09/10 09:50:10;;;;;;;;;;;;;;;17.37;70.30;100774.00;5091566;28;19959;-76
2022/09/10 09:52:37;;;;;;;;;;;;;;;17.42;70.14;100772.00;5091444;28;21554;-76
2022/09/10 09:55:05;;;;;;;;;;;;;;;17.42;70.87;100766.75;5088889;28;19926;-76
2022/09/10 09:57:31;;;;;;;;;;;;;;;17.45;70.19;100766.59;5086496;28;20411;-76
2022/09/10 09:59:56;;;;;;;;;;;;;;;17.32;70.57;100768.97;5088013;28;19987;-76
2022/09/10 10:02:23;;;;;;;;;;;;;;;17.40;70.59;100772.09;5086608;28;20023;-76
2022/09/10 10:05:11;;;;;;;;;;;;;;;17.42;69.94;100769.38;5064241;28;20404;-76
2022/09/10 10:07:36;;;;;;;;;;;;;;;17.44;69.53;100771.00;5090368;28;19925;-76
2022/09/10 10:10:06;;;;;;;;;;;;;;;17.44;69.00;100765.75;5069039;28;19981;-76
2022/09/10 10:12:32;;;;;;;;;;;;;;;17.49;70.75;100766.38;5095311;28;20296;-76
2022/09/10 10:14:58;;;;;;;;;;;;;;;17.44;70.21;100767.53;5083314;28;19930;-76
2022/09/10 10:17:23;;;;;;;;;;;;;;;17.44;69.01;100762.28;5088259;28;19916;-76
2022/09/10 10:19:57;;;;;;;;;;;;;;;17.52;68.56;100757.50;5087173;28;19963;-76
2022/09/10 10:22:26;;;;;;;;;;;;;;;17.50;67.88;100754.13;5080070;28;19982;-76
2022/09/10 10:24:53;;;;;;;;;;;;;;;17.56;68.45;100745.94;5083503;28;19924;-76
2022/09/10 10:27:31;;;;;;;;;;;;;;;17.53;66.80;100748.72;5091435;28;19924;-76
2022/09/10 10:30:01;;;;;;;;;;;;;;;17.58;67.14;100746.69;5085666;28;19931;-76
2022/09/10 10:32:47;;;;;;;;;;;;;;;17.60;68.89;100747.50;5084165;28;20495;-76
2022/09/10 10:35:22;;;;;;;;;;;;;;;17.56;68.76;100749.38;5085252;28;19924;-76
2022/09/10 10:37:48;;;;;;;;;;;;;;;17.60;69.01;100747.50;5066749;28;20388;-76
2022/09/10 10:40:25;;;;;;;;;;;;;;;17.67;67.67;100750.66;5083870;28;19966;-76
2022/09/10 10:43:05;;;;;;;;;;;;;;;17.70;67.33;100753.13;5088460;28;19927;-76
2022/09/10 10:45:36;;;;;;;;;;;;;;;17.74;68.32;100762.56;5088161;28;19921;-77
2022/09/10 10:48:14;;;;;;;;;;;;;;;17.63;67.44;100752.59;5078176;28;19942;-77
2022/09/10 10:50:43;;;;;;;;;;;;;;;17.70;67.92;100756.63;5089797;28;20382;-77
2022/09/10 10:53:17;;;;;;;;;;;;;;;17.71;67.79;100753.03;5092065;28;20057;-77
2022/09/10 10:55:46;;;;;;;;;;;;;;;17.75;68.55;100761.63;5086537;28;19927;-77
2022/09/10 10:58:19;;;;;;;;;;;;;;;17.72;66.94;100760.00;5086066;28;19920;-76
2022/09/10 11:00:50;;;;;;;;;;;;;;;17.72;65.16;100753.91;5091496;28;20029;-76
2022/09/10 11:03:22;;;;;;;;;;;;;;;17.71;64.27;100753.03;5088688;28;19930;-76
2022/09/10 11:05:51;;;;;;;;;;;;;;;17.77;65.26;100760.63;5093133;28;20376;-76
2022/09/10 11:08:29;;;;;;;;;;;;;;;17.78;64.81;100750.97;5088681;28;20077;-77
2022/09/10 11:10:55;;;;;;;;;;;;;;;17.72;63.11;100748.66;5091672;28;19931;-77
2022/09/10 11:13:31;;;;;;;;;;;;;;;17.77;63.06;100747.47;5084742;28;19924;-76
2022/09/10 11:16:07;;;;;;;;;;;;;;;17.77;62.74;100751.91;5084362;28;19927;-76
2022/09/10 11:18:32;;;;;;;;;;;;;;;17.80;62.30;100743.88;5091214;28;19928;-76
2022/09/10 11:21:16;;;;;;;;;;;;;;;17.78;61.92;100743.06;5069515;28;19939;-76
2022/09/10 11:23:51;;;;;;;;;;;;;;;17.83;62.55;100743.72;5093544;28;19965;-77
2022/09/10 11:26:42;;;;;;;;;;;;;;;17.82;64.70;100753.38;5089808;28;19924;-77
2022/09/10 11:29:27;;;;;;;;;;;;;;;17.81;63.57;100742.91;5087291;28;19924;-77
2022/09/10 11:32:05;;;;;;;;;;;;;;;17.80;63.46;100739.44;5091415;28;20023;-77
2022/09/10 11:34:49;;;;;;;;;;;;;;;17.73;62.01;100730.19;5071618;28;19927;-77
2022/09/10 11:37:34;;;;;;;;;;;;;;;17.73;62.98;100743.31;5089806;28;19966;-77
2022/09/10 11:40:04;;;;;;;;;;;;;;;17.73;64.27;100745.97;5089586;28;19923;-76
2022/09/10 11:42:39;;;;;;;;;;;;;;;17.75;63.77;100738.84;5097264;28;19924;-76
2022/09/10 11:45:24;;;;;;;;;;;;;;;17.78;65.39;100749.19;5089500;28;20022;-77
2022/09/10 11:47:55;;;;;;;;;;;;;;;17.75;65.55;100737.97;5096785;28;19919;-76
2022/09/10 11:50:42;;;;;;;;;;;;;;;17.76;64.80;100743.16;5092814;28;19924;-76
2022/09/10 11:53:10;;;;;;;;;;;;;;;17.76;66.14;100744.94;5084137;28;19920;-76
2022/09/10 11:55:45;;;;;;;;;;;;;;;17.68;65.42;100744.50;5096771;28;19924;-76
2022/09/10 11:58:15;;;;;;;;;;;;;;;17.64;65.43;100743.78;5096946;28;19920;-76
2022/09/10 12:00:49;;;;;;;;;;;;;;;17.70;64.52;100737.38;5070934;28;19927;-76
2022/09/10 12:03:35;;;;;;;;;;;;;;;17.76;66.89;100743.16;5091903;28;19920;-76
2022/09/10 12:06:04;;;;;;;;;;;;;;;17.72;65.09;100743.38;5091510;28;19963;-76
2022/09/10 12:08:39;;;;;;;;;;;;;;;17.70;65.46;100743.47;5095897;28;20510;-76
2022/09/10 12:11:28;;;;;;;;;;;;;;;17.68;65.68;100745.31;5072420;28;19924;-76
2022/09/10 12:13:53;;;;;;;;;;;;;;;17.69;65.87;100744.41;5084380;28;20262;-76
2022/09/10 12:16:22;;;;;;;;;;;;;;;17.73;65.48;100750.34;5085888;28;19979;-76
2022/09/10 12:18:50;;;;;;;;;;;;;;;17.78;65.73;100745.72;5092408;28;19944;-76
2022/09/10 12:21:18;;;;;;;;;;;;;;;17.78;66.15;100735.19;5091879;28;19920;-76
2022/09/10 12:23:43;;;;;;;;;;;;;;;17.82;65.11;100739.38;5089248;28;19916;-76
2022/09/10 12:26:08;;;;;;;;;;;;;;;17.84;64.26;100727.84;5072952;28;19947;-76
2022/09/10 12:28:37;;;;;;;;;;;;;;;17.90;66.35;100734.56;5094300;28;19920;-76
2022/09/10 12:31:02;;;;;;;;;;;;;;;17.86;65.17;100735.66;5106771;22;19964;-87
2022/09/10 12:33:29;;;;;;;;;;;;;;;17.86;63.54;100733.88;5064239;28;20027;-88
2022/09/10 12:35:54;;;;;;;;;;;;;;;17.84;64.74;100742.75;5085291;28;19955;-89
2022/09/10 12:38:41;;;;;;;;;;;;;;;17.75;64.16;100736.22;5060245;28;20004;-89
2022/09/10 12:41:13;;;;;;;;;;;;;;;17.75;63.35;100735.34;5051574;28;19925;-88
2022/09/10 12:43:38;;;;;;;;;;;;;;;17.80;63.44;100736.81;5049588;28;19916;-88